Time,TemperatureF,DewpointF,PressureIn,WindDirection,WindDirectionDegrees,WindSpeedMPH,WindSpeedGustMPH,Humidity,HourlyPrecipIn,Conditions,Clouds,dailyrainin,SolarRadiationWatts/m^2,SoftwareType,DateUTC
2013-01-31 00:00:00,28.2,14.5,29.96,South,176,2.7,4.0,56,0.00,SCT,SCT,0.00,0.0,WeatherDisplay:10.37,2013-01-31 07:00:00,
2013-01-31 00:05:00,27.9,14.2,29.95,SSE,165,0.0,0.0,56,0.00,SCT,SCT,0.00,0.0,WeatherDisplay:10.37,2013-01-31 07:05:00,
2013-01-31 00:10:00,27.8,14.5,29.95,SSE,165,0.2,3.4,57,0.00,SCT,SCT,0.00,0.0,WeatherDisplay:10.37,2013-01-31 07:10:00,
2013-01-31 00:15:00,27.7,14.4,29.94,SSE,166,0.0,0.0,57,0.00,SCT,SCT,0.00,0.0,WeatherDisplay:10.37,2013-01-31 07:15:00,
2013-01-31 00:20:00,27.8,14.5,29.94,SSE,166,0.1,2.3,57,0.00,SCT,SCT,0.00,0.0,WeatherDisplay:10.37,2013-01-31 07:20:00,
2013-01-31 00:25:00,28.4,15.1,29.94,WNW,288,2.3,4.6,57,0.00,SCT,SCT,0.00,0.0,WeatherDisplay:10.37,2013-01-31 07:25:00,
2013-01-31 00:30:00,29.2,15.4,29.92,WNW,289,0.2,2.3,56,0.00,SCT,SCT,0.00,0.0,WeatherDisplay:10.37,2013-01-31 07:30:00,
2013-01-31 00:35:00,30.8,16.1,29.91,WNW,300,4.5,9.2,54,0.00,SCT,SCT,0.00,0.0,WeatherDisplay:10.37,2013-01-31 07:35:00,
2013-01-31 00:40:00,32.7,16.5,29.90,NW,318,7.5,11.5,51,0.00,SCT,SCT,0.00,0.0,WeatherDisplay:10.37,2013-01-31 07:40:00,
2013-01-31 00:45:00,34.7,17.0,29.88,NW,306,3.5,5.8,48,0.00,SCT,SCT,0.00,0.0,WeatherDisplay:10.37,2013-01-31 07:45:00,
2013-01-31 00:50:00,35.3,17.1,29.89,SW,232,5.0,10.3,47,0.00,SCT,SCT,0.00,0.0,WeatherDisplay:10.37,2013-01-31 07:50:00,
2013-01-31 00:55:00,35.2,16.5,29.89,South,179,2.6,5.8,46,0.00,SCT,SCT,0.00,0.0,WeatherDisplay:10.37,2013-01-31 07:55:00,
2013-01-31 01:00:00,35.0,16.3,29.89,South,190,2.4,4.0,46,0.00,SCT,SCT,0.00,0.0,WeatherDisplay:10.37,2013-01-31 08:00:00,
2013-01-31 01:05:00,34.9,16.7,29.88,South,188,0.0,0.0,47,0.00,SCT,SCT,0.00,0.0,WeatherDisplay:10.37,2013-01-31 08:05:00,
2013-01-31 01:10:00,34.6,16.4,29.88,South,189,0.6,2.3,47,0.00,SCT,SCT,0.00,0.0,WeatherDisplay:10.37,2013-01-31 08:10:00,
2013-01-31 01:15:00,34.4,16.7,29.90,South,188,0.0,1.1,48,0.00,SCT,SCT,0.00,0.0,WeatherDisplay:10.37,2013-01-31 08:15:00,
2013-01-31 01:20:00,34.2,16.5,29.90,South,189,0.2,1.0,48,0.00,SCT,SCT,0.00,0.0,WeatherDisplay:10.37,2013-01-31 08:20:00,
2013-01-31 01:25:00,33.9,16.3,29.90,South,189,0.8,2.3,48,0.00,SCT,SCT,0.00,0.0,WeatherDisplay:10.37,2013-01-31 08:25:00,
2013-01-31 01:30:00,33.3,16.2,29.90,SSW,197,0.2,1.0,49,0.00,SCT,SCT,0.00,0.0,WeatherDisplay:10.37,2013-01-31 08:30:00,
2013-01-31 01:35:00,32.6,16.0,29.90,SSW,194,1.6,3.4,50,0.00,SCT,SCT,0.00,0.0,WeatherDisplay:10.37,2013-01-31 08:35:00,
2013-01-31 01:40:00,32.2,15.6,29.91,SSW,196,0.2,2.3,50,0.00,SCT,SCT,0.00,0.0,WeatherDisplay:10.37,2013-01-31 08:40:00,
2013-01-31 01:45:00,31.7,15.6,29.91,West,263,1.8,7.0,51,0.00,SCT,SCT,0.00,0.0,WeatherDisplay:10.37,2013-01-31 08:45:00,
2013-01-31 01:50:00,31.6,15.5,29.91,West,264,0.8,3.4,51,0.00,SCT,SCT,0.00,0.0,WeatherDisplay:10.37,2013-01-31 08:50:00,
2013-01-31 01:55:00,31.7,15.6,29.91,West,264,0.0,2.3,51,0.00,SCT,SCT,0.00,0.0,WeatherDisplay:10.37,2013-01-31 08:55:00,
2013-01-31 02:00:00,31.7,15.6,29.91,West,264,0.0,2.3,51,0.00,SCT,SCT,0.00,0.0,WeatherDisplay:10.37,2013-01-31 09:00:00,
2013-01-31 02:05:00,31.7,15.6,29.92,West,264,0.0,0.0,51,0.00,SCT,SCT,0.00,0.0,WeatherDisplay:10.37,2013-01-31 09:05:00,
2013-01-31 02:10:00,31.6,15.5,29.92,West,264,1.0,1.1,51,0.00,SCT,SCT,0.00,0.0,WeatherDisplay:10.37,2013-01-31 09:10:00,
2013-01-31 02:15:00,31.4,15.3,29.93,West,264,0.7,1.1,51,0.00,SCT,SCT,0.00,0.0,WeatherDisplay:10.37,2013-01-31 09:15:00,
2013-01-31 02:20:00,31.1,15.5,29.93,West,263,0.1,2.3,52,0.00,SCT,SCT,0.00,0.0,WeatherDisplay:10.37,2013-01-31 09:20:00,
2013-01-31 02:25:00,30.9,15.8,29.93,West,263,0.0,1.1,53,0.00,SCT,SCT,0.00,0.0,WeatherDisplay:10.37,2013-01-31 09:25:00,
2013-01-31 02:30:00,30.7,15.6,29.93,West,262,0.4,2.0,53,0.00,SCT,SCT,0.00,0.0,WeatherDisplay:10.37,2013-01-31 09:30:00,
2013-01-31 02:35:00,30.4,15.3,29.94,WSW,252,0.3,2.0,53,0.00,SCT,SCT,0.00,0.0,WeatherDisplay:10.37,2013-01-31 09:35:00,
2013-01-31 02:40:00,30.0,15.3,29.94,SSE,167,1.6,3.4,54,0.00,SCT,SCT,0.00,0.0,WeatherDisplay:10.37,2013-01-31 09:40:00,
2013-01-31 02:45:00,29.6,15.4,29.94,SSE,167,0.0,2.3,55,0.00,SCT,SCT,0.00,0.0,WeatherDisplay:10.37,2013-01-31 09:45:00,
2013-01-31 02:50:00,29.3,15.1,29.95,SSE,167,1.1,2.3,55,0.00,SCT,SCT,0.00,0.0,WeatherDisplay:10.37,2013-01-31 09:50:00,
2013-01-31 02:55:00,29.0,15.2,29.95,SSE,167,1.1,2.0,56,0.00,SCT,SCT,0.00,0.0,WeatherDisplay:10.37,2013-01-31 09:55:00,
2013-01-31 03:00:00,29.1,14.9,29.96,SSE,164,0.7,3.4,55,0.00,SCT,SCT,0.00,0.0,WeatherDisplay:10.37,2013-01-31 10:00:00,
2013-01-31 03:05:00,29.7,15.1,29.94,NW,304,0.9,3.4,54,0.00,SCT,SCT,0.00,0.0,WeatherDisplay:10.37,2013-01-31 10:05:00,
2013-01-31 03:10:00,30.5,15.4,29.94,WNW,299,2.3,3.4,53,0.00,SCT,SCT,0.00,0.0,WeatherDisplay:10.37,2013-01-31 10:10:00,
2013-01-31 03:15:00,31.3,15.2,29.94,WNW,290,2.2,4.6,51,0.00,SCT,SCT,0.00,0.0,WeatherDisplay:10.37,2013-01-31 10:15:00,
2013-01-31 03:20:00,32.0,15.4,29.92,WNW,290,1.2,2.3,50,0.00,SCT,SCT,0.00,0.0,WeatherDisplay:10.37,2013-01-31 10:20:00,
2013-01-31 03:25:00,32.7,15.6,29.92,WNW,287,2.0,5.0,49,0.00,SCT,SCT,0.00,0.0,WeatherDisplay:10.37,2013-01-31 10:25:00,
2013-01-31 03:30:00,33.4,15.8,29.92,WNW,291,1.7,3.4,48,0.00,SCT,SCT,0.00,0.0,WeatherDisplay:10.37,2013-01-31 10:30:00,
2013-01-31 03:35:00,33.9,15.8,29.91,WNW,292,1.7,3.4,47,0.00,SCT,SCT,0.00,0.0,WeatherDisplay:10.37,2013-01-31 10:35:00,
2013-01-31 03:40:00,34.4,16.2,29.91,WNW,294,1.6,3.4,47,0.00,SCT,SCT,0.00,0.0,WeatherDisplay:10.37,2013-01-31 10:40:00,
2013-01-31 03:45:00,34.8,16.1,29.91,WNW,292,2.4,4.0,46,0.00,SCT,SCT,0.00,0.0,WeatherDisplay:10.37,2013-01-31 10:45:00,
2013-01-31 03:50:00,35.1,16.4,29.91,WNW,289,1.1,4.0,46,0.00,SCT,SCT,0.00,0.0,WeatherDisplay:10.37,2013-01-31 10:50:00,
2013-01-31 03:55:00,35.3,16.6,29.90,WNW,289,1.6,3.4,46,0.00,SCT,SCT,0.00,0.0,WeatherDisplay:10.37,2013-01-31 10:55:00,
2013-01-31 04:00:00,35.3,16.0,29.90,WNW,292,1.6,4.6,45,0.00,SCT,SCT,0.00,0.0,WeatherDisplay:10.37,2013-01-31 11:00:00,
2013-01-31 04:05:00,35.5,16.2,29.91,NW,309,2.0,9.2,45,0.00,SCT,SCT,0.00,0.0,WeatherDisplay:10.37,2013-01-31 11:05:00,
2013-01-31 04:10:00,35.9,16.1,29.92,WNW,298,9.5,10.3,44,0.00,SCT,SCT,0.00,0.0,WeatherDisplay:10.37,2013-01-31 11:10:00,
2013-01-31 04:15:00,36.8,16.4,29.91,WNW,293,8.7,18.4,43,0.00,SCT,SCT,0.00,0.0,WeatherDisplay:10.37,2013-01-31 11:15:00,
2013-01-31 04:20:00,37.4,16.4,29.91,NNW,329,13.3,16.1,42,0.00,SCT,SCT,0.00,0.0,WeatherDisplay:10.37,2013-01-31 11:20:00,
2013-01-31 04:25:00,38.1,16.4,29.91,NW,325,16.6,22.0,41,0.00,SCT,SCT,0.00,0.0,WeatherDisplay:10.37,2013-01-31 11:25:00,
2013-01-31 04:30:00,38.6,16.3,29.90,WNW,299,11.0,16.1,40,0.00,SCT,SCT,0.00,0.0,WeatherDisplay:10.37,2013-01-31 11:30:00,
2013-01-31 04:35:00,38.8,15.9,29.90,NW,310,8.4,14.0,39,0.00,SCT,SCT,0.00,0.0,WeatherDisplay:10.37,2013-01-31 11:35:00,
2013-01-31 04:40:00,38.9,16.0,29.90,NW,326,4.3,14.9,39,0.00,SCT,SCT,0.00,0.0,WeatherDisplay:10.37,2013-01-31 11:40:00,
2013-01-31 04:45:00,38.9,15.4,29.90,NNW,338,7.8,16.1,38,0.00,SCT,SCT,0.00,0.0,WeatherDisplay:10.37,2013-01-31 11:45:00,
2013-01-31 04:50:00,39.0,15.5,29.91,NW,308,7.9,11.5,38,0.00,SCT,SCT,0.00,0.0,WeatherDisplay:10.37,2013-01-31 11:50:00,
2013-01-31 04:55:00,39.1,15.6,29.91,NW,315,4.4,5.8,38,0.00,SCT,SCT,0.00,0.0,WeatherDisplay:10.37,2013-01-31 11:55:00,
2013-01-31 05:00:00,39.0,16.1,29.90,WNW,298,5.1,11.5,39,0.00,SCT,SCT,0.00,0.0,WeatherDisplay:10.37,2013-01-31 12:00:00,
2013-01-31 05:05:00,38.7,15.8,29.92,NW,326,6.7,11.5,39,0.00,SCT,SCT,0.00,0.0,WeatherDisplay:10.37,2013-01-31 12:05:00,
2013-01-31 05:10:00,38.7,15.8,29.92,NW,305,3.3,11.5,39,0.00,SCT,SCT,0.00,0.0,WeatherDisplay:10.37,2013-01-31 12:10:00,
2013-01-31 05:15:00,38.6,15.7,29.92,NW,319,2.5,6.9,39,0.00,SCT,SCT,0.00,0.0,WeatherDisplay:10.37,2013-01-31 12:15:00,
2013-01-31 05:20:00,38.5,15.7,29.92,NW,309,3.6,3.6,39,0.00,SCT,SCT,0.00,0.0,WeatherDisplay:10.37,2013-01-31 12:20:00,
2013-01-31 05:25:00,38.3,15.5,29.92,NW,309,1.7,3.4,39,0.00,SCT,SCT,0.00,0.0,WeatherDisplay:10.37,2013-01-31 12:25:00,
2013-01-31 05:30:00,38.1,15.9,29.93,NW,308,1.6,3.4,40,0.00,SCT,SCT,0.00,0.0,WeatherDisplay:10.37,2013-01-31 12:30:00,
2013-01-31 05:35:00,37.8,15.6,29.93,NW,307,0.0,2.3,40,0.00,SCT,SCT,0.00,0.0,WeatherDisplay:10.37,2013-01-31 12:35:00,
2013-01-31 05:40:00,37.6,16.0,29.93,NW,308,0.4,2.3,41,0.00,SCT,SCT,0.00,0.0,WeatherDisplay:10.37,2013-01-31 12:40:00,
2013-01-31 05:45:00,37.3,15.7,29.94,WNW,302,2.1,2.1,41,0.00,SCT,SCT,0.00,0.0,WeatherDisplay:10.37,2013-01-31 12:45:00,
2013-01-31 05:50:00,37.1,15.5,29.94,WNW,298,0.3,2.0,41,0.00,SCT,SCT,0.00,0.0,WeatherDisplay:10.37,2013-01-31 12:50:00,
2013-01-31 05:55:00,36.9,15.4,29.95,WNW,298,0.3,2.3,41,0.00,SCT,SCT,0.00,0.0,WeatherDisplay:10.37,2013-01-31 12:55:00,
2013-01-31 06:00:00,36.7,15.7,29.95,WNW,298,0.2,1.1,42,0.00,SCT,SCT,0.00,0.0,WeatherDisplay:10.37,2013-01-31 13:00:00,
2013-01-31 06:05:00,36.5,15.6,29.95,WNW,298,0.7,2.0,42,0.00,SCT,SCT,0.00,0.0,WeatherDisplay:10.37,2013-01-31 13:05:00,
2013-01-31 06:10:00,36.3,14.8,29.95,WNW,290,0.9,4.6,41,0.00,SCT,SCT,0.00,0.0,WeatherDisplay:10.37,2013-01-31 13:10:00,
2013-01-31 06:15:00,36.3,15.4,29.96,NNW,333,1.3,4.0,42,0.00,SCT,SCT,0.00,0.0,WeatherDisplay:10.37,2013-01-31 13:15:00,
2013-01-31 06:20:00,36.1,15.2,29.95,NNE,15,3.6,3.6,42,0.00,SCT,SCT,0.00,0.0,WeatherDisplay:10.37,2013-01-31 13:20:00,
2013-01-31 06:25:00,36.0,15.1,29.96,North,360,0.7,2.3,42,0.00,SCT,SCT,0.00,0.0,WeatherDisplay:10.37,2013-01-31 13:25:00,
2013-01-31 06:30:00,35.8,15.5,29.96,North,360,0.2,3.0,43,0.00,SCT,SCT,0.00,0.0,WeatherDisplay:10.37,2013-01-31 13:30:00,
2013-01-31 06:35:00,35.6,15.3,29.97,NW,313,0.7,2.0,43,0.00,SCT,SCT,0.00,0.0,WeatherDisplay:10.37,2013-01-31 13:35:00,
2013-01-31 06:40:00,35.2,15.4,29.98,NW,313,0.2,1.1,44,0.00,SCT,SCT,0.00,0.0,WeatherDisplay:10.37,2013-01-31 13:40:00,
2013-01-31 06:45:00,34.9,15.7,29.98,NW,313,0.9,2.0,45,0.00,SCT,SCT,0.00,0.0,WeatherDisplay:10.37,2013-01-31 13:45:00,
2013-01-31 06:50:00,34.2,15.5,29.98,NNW,342,0.9,2.3,46,0.00,SCT,SCT,0.00,0.0,WeatherDisplay:10.37,2013-01-31 13:50:00,
2013-01-31 06:55:00,33.4,15.3,29.99,ENE,63,0.6,2.3,47,0.00,SCT,SCT,0.00,0.0,WeatherDisplay:10.37,2013-01-31 13:55:00,
2013-01-31 07:00:00,32.7,15.1,30.00,ENE,61,0.6,4.0,48,0.00,SCT,SCT,0.00,0.0,WeatherDisplay:10.37,2013-01-31 14:00:00,
2013-01-31 07:05:00,32.1,14.6,30.02,ENE,61,1.0,2.3,48,0.00,SCT,SCT,0.00,0.0,WeatherDisplay:10.37,2013-01-31 14:05:00,
2013-01-31 07:10:00,31.7,14.7,30.02,ENE,61,0.0,0.0,49,0.00,SCT,SCT,0.00,5.0,WeatherDisplay:10.37,2013-01-31 14:10:00,
2013-01-31 07:15:00,31.4,14.9,30.02,ENE,61,0.0,0.0,50,0.00,SCT,SCT,0.00,9.0,WeatherDisplay:10.37,2013-01-31 14:15:00,
2013-01-31 07:20:00,31.0,14.5,30.03,ENE,61,0.0,0.0,50,0.00,SCT,SCT,0.00,11.0,WeatherDisplay:10.37,2013-01-31 14:20:00,
2013-01-31 07:25:00,30.4,14.9,30.03,ENE,61,2.8,4.6,52,0.00,SCT,SCT,0.00,12.0,WeatherDisplay:10.37,2013-01-31 14:25:00,
2013-01-31 07:30:00,29.7,14.6,30.05,ENE,60,1.5,4.6,53,0.00,SCT,SCT,0.00,16.0,WeatherDisplay:10.37,2013-01-31 14:30:00,
2013-01-31 07:35:00,29.3,14.7,30.05,ENE,60,1.6,3.4,54,0.00,SCT,SCT,0.00,47.0,WeatherDisplay:10.37,2013-01-31 14:35:00,
2013-01-31 07:40:00,28.9,14.7,30.06,ENE,61,2.0,3.4,55,0.00,SCT,SCT,0.00,76.0,WeatherDisplay:10.37,2013-01-31 14:40:00,
2013-01-31 07:45:00,28.5,14.8,30.07,ENE,61,0.4,2.0,56,0.00,SCT,SCT,0.00,91.0,WeatherDisplay:10.37,2013-01-31 14:45:00,
2013-01-31 07:50:00,28.2,14.9,30.09,ENE,61,1.4,2.3,57,0.00,SCT,SCT,0.00,107.0,WeatherDisplay:10.37,2013-01-31 14:50:00,
2013-01-31 07:55:00,28.1,15.2,30.09,NE,48,3.4,5.0,58,0.00,SCT,SCT,0.00,125.0,WeatherDisplay:10.37,2013-01-31 14:55:00,
2013-01-31 08:00:00,28.0,15.5,30.10,NE,49,2.0,5.8,59,0.00,SCT,SCT,0.00,135.0,WeatherDisplay:10.37,2013-01-31 15:00:00,
2013-01-31 08:05:00,27.9,15.4,30.08,NNE,14,1.5,3.4,59,0.00,SCT,SCT,0.00,151.0,WeatherDisplay:10.37,2013-01-31 15:05:00,
2013-01-31 08:10:00,27.9,15.8,30.09,NNE,18,3.6,6.9,60,0.00,SCT,SCT,0.00,165.0,WeatherDisplay:10.37,2013-01-31 15:10:00,
2013-01-31 08:15:00,27.8,16.1,30.09,NW,307,1.3,6.9,61,0.00,SCT,SCT,0.00,178.0,WeatherDisplay:10.37,2013-01-31 15:15:00,
2013-01-31 08:20:00,27.8,16.1,30.10,NE,46,2.5,4.6,61,0.00,SCT,SCT,0.00,188.0,WeatherDisplay:10.37,2013-01-31 15:20:00,
2013-01-31 08:25:00,27.8,16.5,30.10,NE,51,3.4,5.8,62,0.00,SCT,SCT,0.00,204.0,WeatherDisplay:10.37,2013-01-31 15:25:00,
2013-01-31 08:30:00,27.8,16.5,30.10,NE,53,2.0,3.4,62,0.00,SCT,SCT,0.00,218.0,WeatherDisplay:10.37,2013-01-31 15:30:00,
2013-01-31 08:35:00,28.0,16.6,30.11,ENE,63,1.3,3.0,62,0.00,SCT,SCT,0.00,230.0,WeatherDisplay:10.37,2013-01-31 15:35:00,
2013-01-31 08:40:00,28.1,16.7,30.11,East,86,5.4,5.8,62,0.00,SCT,SCT,0.00,243.0,WeatherDisplay:10.37,2013-01-31 15:40:00,
2013-01-31 08:45:00,28.3,17.3,30.11,East,84,2.5,3.4,63,0.00,SCT,SCT,0.00,257.0,WeatherDisplay:10.37,2013-01-31 15:45:00,
2013-01-31 08:50:00,28.6,17.6,30.11,East,101,5.0,5.8,63,0.00,SCT,SCT,0.00,271.0,WeatherDisplay:10.37,2013-01-31 15:50:00,
2013-01-31 08:55:00,29.1,17.7,30.12,East,101,0.1,2.3,62,0.00,SCT,SCT,0.00,283.0,WeatherDisplay:10.37,2013-01-31 15:55:00,
2013-01-31 09:00:00,29.7,18.3,30.11,East,101,3.2,5.8,62,0.00,SCT,SCT,0.00,299.0,WeatherDisplay:10.37,2013-01-31 16:00:00,
2013-01-31 09:05:00,30.0,18.5,30.15,East,95,2.7,5.8,62,0.00,SCT,SCT,0.00,311.0,WeatherDisplay:10.37,2013-01-31 16:05:00,
2013-01-31 09:10:00,30.4,18.9,30.16,East,86,2.1,3.4,62,0.00,SCT,SCT,0.00,322.0,WeatherDisplay:10.37,2013-01-31 16:10:00,
2013-01-31 09:15:00,31.0,19.1,30.14,NE,41,2.5,3.0,61,0.00,SCT,SCT,0.00,334.0,WeatherDisplay:10.37,2013-01-31 16:15:00,
2013-01-31 09:20:00,31.5,19.6,30.14,ENE,65,3.4,4.6,61,0.00,SCT,SCT,0.00,348.0,WeatherDisplay:10.37,2013-01-31 16:20:00,
2013-01-31 09:25:00,32.0,19.3,30.14,ENE,61,3.2,5.8,59,0.00,SCT,SCT,0.00,360.0,WeatherDisplay:10.37,2013-01-31 16:25:00,
2013-01-31 09:30:00,32.8,20.0,30.13,NE,35,3.8,5.0,59,0.00,SCT,SCT,0.00,373.0,WeatherDisplay:10.37,2013-01-31 16:30:00,
2013-01-31 09:35:00,33.3,20.1,30.13,ENE,67,2.3,4.6,58,0.00,SCT,SCT,0.00,383.0,WeatherDisplay:10.37,2013-01-31 16:35:00,
2013-01-31 09:40:00,33.8,19.7,30.14,NE,48,0.8,3.0,56,0.00,SCT,SCT,0.00,396.0,WeatherDisplay:10.37,2013-01-31 16:40:00,
2013-01-31 09:45:00,34.6,20.1,30.13,NE,48,0.0,0.0,55,0.00,SCT,SCT,0.00,406.0,WeatherDisplay:10.37,2013-01-31 16:45:00,
2013-01-31 09:50:00,35.7,20.7,30.12,NE,48,1.2,2.3,54,0.00,SCT,SCT,0.00,417.0,WeatherDisplay:10.37,2013-01-31 16:50:00,
2013-01-31 09:55:00,36.5,20.5,30.11,NE,47,2.7,6.0,52,0.00,SCT,SCT,0.00,427.0,WeatherDisplay:10.37,2013-01-31 16:55:00,
2013-01-31 10:00:00,37.2,20.2,30.12,ENE,78,4.3,6.0,50,0.00,SCT,SCT,0.00,439.0,WeatherDisplay:10.37,2013-01-31 17:00:00,
2013-01-31 10:05:00,37.7,20.7,30.13,ENE,63,1.3,4.0,50,0.00,SCT,SCT,0.00,446.0,WeatherDisplay:10.37,2013-01-31 17:05:00,
2013-01-31 10:10:00,38.1,20.6,30.12,East,91,5.2,9.0,49,0.00,SCT,SCT,0.00,455.0,WeatherDisplay:10.37,2013-01-31 17:10:00,
2013-01-31 10:15:00,38.2,20.2,30.13,East,101,1.6,4.0,48,0.00,SCT,SCT,0.00,468.0,WeatherDisplay:10.37,2013-01-31 17:15:00,
2013-01-31 10:20:00,38.6,20.6,30.12,East,90,4.2,8.1,48,0.00,SCT,SCT,0.00,475.0,WeatherDisplay:10.37,2013-01-31 17:20:00,
2013-01-31 10:25:00,39.0,20.5,30.12,NE,51,3.5,4.0,47,0.00,SCT,SCT,0.00,485.0,WeatherDisplay:10.37,2013-01-31 17:25:00,
2013-01-31 10:30:00,39.5,19.4,30.12,North,350,2.0,6.9,44,0.00,SCT,SCT,0.00,494.0,WeatherDisplay:10.37,2013-01-31 17:30:00,
2013-01-31 10:35:00,40.2,18.9,30.12,NW,315,5.3,10.3,42,0.00,SCT,SCT,0.01,503.0,WeatherDisplay:10.37,2013-01-31 17:35:00,
2013-01-31 10:40:00,40.9,19.0,30.11,NNW,336,2.7,12.6,41,0.01,RA,RA,0.01,510.0,WeatherDisplay:10.37,2013-01-31 17:40:00,
2013-01-31 10:45:00,41.3,18.8,30.11,NW,313,6.1,11.5,40,0.01,RA,RA,0.01,517.0,WeatherDisplay:10.37,2013-01-31 17:45:00,
2013-01-31 10:50:00,41.6,19.0,30.11,North,360,6.8,10.3,40,0.01,SCT,SCT,0.01,522.0,WeatherDisplay:10.37,2013-01-31 17:50:00,
2013-01-31 10:55:00,41.6,18.4,30.10,NNW,337,5.6,9.2,39,0.01,SCT,SCT,0.01,529.0,WeatherDisplay:10.37,2013-01-31 17:55:00,
2013-01-31 11:00:00,41.8,18.6,30.11,NNW,336,5.6,11.5,39,0.01,SCT,SCT,0.01,533.0,WeatherDisplay:10.37,2013-01-31 18:00:00,
2013-01-31 11:05:00,42.0,18.8,30.12,NW,322,6.4,11.5,39,0.01,SCT,SCT,0.01,540.0,WeatherDisplay:10.37,2013-01-31 18:05:00,
2013-01-31 11:10:00,42.0,18.8,30.12,NW,319,12.6,13.8,39,0.01,SCT,SCT,0.01,547.0,WeatherDisplay:10.37,2013-01-31 18:10:00,
2013-01-31 11:15:00,42.2,19.0,30.12,NNE,30,6.2,10.3,39,0.01,SCT,SCT,0.01,550.0,WeatherDisplay:10.37,2013-01-31 18:15:00,
2013-01-31 11:20:00,42.7,18.8,30.12,WNW,303,9.6,11.5,38,0.01,SCT,SCT,0.01,555.0,WeatherDisplay:10.37,2013-01-31 18:20:00,
2013-01-31 11:25:00,42.8,18.9,30.12,North,355,5.0,11.5,38,0.01,SCT,SCT,0.01,557.0,WeatherDisplay:10.37,2013-01-31 18:25:00,
2013-01-31 11:30:00,43.1,19.2,30.12,NW,325,4.0,11.5,38,0.01,SCT,SCT,0.01,563.0,WeatherDisplay:10.37,2013-01-31 18:30:00,
2013-01-31 11:35:00,43.5,17.6,30.10,NW,321,8.3,11.5,35,0.01,SCT,SCT,0.01,566.0,WeatherDisplay:10.37,2013-01-31 18:35:00,
2013-01-31 11:40:00,43.8,17.2,30.10,WNW,295,9.7,16.1,34,0.00,SCT,SCT,0.01,570.0,WeatherDisplay:10.37,2013-01-31 18:40:00,
2013-01-31 11:45:00,44.0,17.4,30.10,WNW,294,11.1,17.3,34,0.00,SCT,SCT,0.01,571.0,WeatherDisplay:10.37,2013-01-31 18:45:00,
2013-01-31 11:50:00,44.3,17.7,30.09,NNW,333,8.1,11.5,34,0.00,SCT,SCT,0.01,573.0,WeatherDisplay:10.37,2013-01-31 18:50:00,
2013-01-31 11:55:00,44.9,17.5,30.09,NNW,332,7.7,10.3,33,0.00,SCT,SCT,0.01,575.0,WeatherDisplay:10.37,2013-01-31 18:55:00,
2013-01-31 12:00:00,45.0,17.6,30.09,NW,317,8.8,12.6,33,0.00,SCT,SCT,0.01,578.0,WeatherDisplay:10.37,2013-01-31 19:00:00,
2013-01-31 12:05:00,45.1,17.0,30.04,North,5,10.2,16.1,32,0.00,SCT,SCT,0.01,578.0,WeatherDisplay:10.37,2013-01-31 19:05:00,
2013-01-31 12:10:00,45.2,17.0,30.04,NW,324,7.7,16.1,32,0.00,SCT,SCT,0.01,578.0,WeatherDisplay:10.37,2013-01-31 19:10:00,
2013-01-31 12:15:00,45.3,17.1,30.03,NW,309,8.4,13.8,32,0.00,FEW,FEW,0.01,578.0,WeatherDisplay:10.37,2013-01-31 19:15:00,
2013-01-31 12:20:00,45.7,16.7,30.03,NNW,331,11.8,17.3,31,0.00,FEW,FEW,0.01,578.0,WeatherDisplay:10.37,2013-01-31 19:20:00,
2013-01-31 12:25:00,45.8,16.8,30.03,NNW,327,10.4,11.0,31,0.00,FEW,FEW,0.01,577.0,WeatherDisplay:10.37,2013-01-31 19:25:00,
2013-01-31 12:30:00,46.0,17.0,30.03,NNW,338,8.1,13.8,31,0.00,FEW,FEW,0.01,575.0,WeatherDisplay:10.37,2013-01-31 19:30:00,
2013-01-31 12:35:00,46.2,17.2,30.04,NNE,25,5.4,9.2,31,0.00,FEW,FEW,0.01,571.0,WeatherDisplay:10.37,2013-01-31 19:35:00,
2013-01-31 12:40:00,46.4,17.4,30.03,NNW,327,5.7,16.1,31,0.00,FEW,FEW,0.01,571.0,WeatherDisplay:10.37,2013-01-31 19:40:00,
2013-01-31 12:45:00,46.7,17.6,30.02,NW,304,6.2,11.5,31,0.00,FEW,FEW,0.01,570.0,WeatherDisplay:10.37,2013-01-31 19:45:00,
2013-01-31 12:50:00,46.8,17.0,30.02,WNW,296,8.1,10.3,30,0.00,FEW,FEW,0.01,566.0,WeatherDisplay:10.37,2013-01-31 19:50:00,
2013-01-31 12:55:00,46.9,17.0,30.02,WNW,300,6.2,11.5,30,0.00,FEW,FEW,0.01,552.0,WeatherDisplay:10.37,2013-01-31 19:55:00,
2013-01-31 13:00:00,47.0,16.3,30.02,NW,322,7.9,11.5,29,0.00,FEW,FEW,0.01,554.0,WeatherDisplay:10.37,2013-01-31 20:00:00,
2013-01-31 13:05:00,47.0,16.3,30.04,North,350,4.5,5.8,29,0.00,SCT,SCT,0.01,557.0,WeatherDisplay:10.37,2013-01-31 20:05:00,
2013-01-31 13:10:00,47.1,16.4,30.04,NW,321,7.0,17.3,29,0.00,SCT,SCT,0.01,550.0,WeatherDisplay:10.37,2013-01-31 20:10:00,
2013-01-31 13:15:00,47.3,15.8,30.05,NNW,343,11.7,18.4,28,0.00,SCT,SCT,0.01,543.0,WeatherDisplay:10.37,2013-01-31 20:15:00,
2013-01-31 13:20:00,47.2,17.3,30.04,NNW,338,7.1,11.5,30,0.00,SCT,SCT,0.01,541.0,WeatherDisplay:10.37,2013-01-31 20:20:00,
2013-01-31 13:25:00,47.2,16.5,30.04,NW,323,6.0,13.8,29,0.00,SCT,SCT,0.01,548.0,WeatherDisplay:10.37,2013-01-31 20:25:00,
2013-01-31 13:30:00,47.3,17.4,30.03,NW,306,6.3,10.3,30,0.00,SCT,SCT,0.01,492.0,WeatherDisplay:10.37,2013-01-31 20:30:00,
2013-01-31 13:35:00,47.4,16.7,30.04,NW,318,7.8,13.8,29,0.00,SCT,SCT,0.01,476.0,WeatherDisplay:10.37,2013-01-31 20:35:00,
2013-01-31 13:40:00,47.2,17.3,30.03,NW,325,7.9,16.1,30,0.00,SCT,SCT,0.01,496.0,WeatherDisplay:10.37,2013-01-31 20:40:00,
2013-01-31 13:45:00,47.0,17.1,30.03,NW,314,6.1,14.0,30,0.00,SCT,SCT,0.01,482.0,WeatherDisplay:10.37,2013-01-31 20:45:00,
2013-01-31 13:50:00,46.8,17.0,30.03,NNW,341,5.9,12.0,30,0.00,SCT,SCT,0.01,436.0,WeatherDisplay:10.37,2013-01-31 20:50:00,
2013-01-31 13:55:00,46.7,16.9,30.03,NW,315,7.5,14.9,30,0.00,SCT,SCT,0.01,394.0,WeatherDisplay:10.37,2013-01-31 20:55:00,
2013-01-31 14:00:00,46.5,16.7,30.04,NNW,330,9.3,16.1,30,0.00,SCT,SCT,0.01,381.0,WeatherDisplay:10.37,2013-01-31 21:00:00,
2013-01-31 14:05:00,46.3,17.3,30.06,NNW,333,6.1,13.8,31,0.00,SCT,SCT,0.01,390.0,WeatherDisplay:10.37,2013-01-31 21:05:00,
2013-01-31 14:10:00,46.4,18.1,30.06,NW,322,5.2,11.5,32,0.00,SCT,SCT,0.01,394.0,WeatherDisplay:10.37,2013-01-31 21:10:00,
2013-01-31 14:15:00,46.4,17.4,30.06,NNW,345,8.2,11.5,31,0.00,SCT,SCT,0.01,401.0,WeatherDisplay:10.37,2013-01-31 21:15:00,
2013-01-31 14:20:00,46.3,17.3,30.06,North,360,9.9,17.3,31,0.00,SCT,SCT,0.01,422.0,WeatherDisplay:10.37,2013-01-31 21:20:00,
2013-01-31 14:25:00,46.0,17.0,30.06,NNW,338,8.6,13.8,31,0.00,SCT,SCT,0.01,422.0,WeatherDisplay:10.37,2013-01-31 21:25:00,
2013-01-31 14:30:00,46.0,18.5,30.06,NNW,331,4.9,10.3,33,0.00,SCT,SCT,0.01,415.0,WeatherDisplay:10.37,2013-01-31 21:30:00,
2013-01-31 14:35:00,46.3,18.0,30.06,NNW,335,3.8,11.5,32,0.00,SCT,SCT,0.01,480.0,WeatherDisplay:10.37,2013-01-31 21:35:00,
2013-01-31 14:40:00,46.8,18.5,30.04,North,355,9.8,16.0,32,0.00,SCT,SCT,0.01,483.0,WeatherDisplay:10.37,2013-01-31 21:40:00,
2013-01-31 14:45:00,47.0,17.9,30.05,North,360,8.6,12.6,31,0.00,SCT,SCT,0.01,301.0,WeatherDisplay:10.37,2013-01-31 21:45:00,
2013-01-31 14:50:00,46.9,17.8,30.05,WNW,294,6.8,6.8,31,0.00,SCT,SCT,0.01,239.0,WeatherDisplay:10.37,2013-01-31 21:50:00,
2013-01-31 14:55:00,46.8,18.5,30.05,NNW,327,4.4,13.8,32,0.00,SCT,SCT,0.01,185.0,WeatherDisplay:10.37,2013-01-31 21:55:00,
2013-01-31 15:00:00,46.4,18.1,30.06,NNW,333,10.3,13.8,32,0.00,SCT,SCT,0.01,253.0,WeatherDisplay:10.37,2013-01-31 22:00:00,
2013-01-31 15:05:00,46.1,17.8,30.02,NNW,342,4.2,9.2,32,0.00,SCT,SCT,0.01,244.0,WeatherDisplay:10.37,2013-01-31 22:05:00,
2013-01-31 15:10:00,45.9,17.7,30.02,NW,317,5.9,10.0,32,0.00,SCT,SCT,0.01,121.0,WeatherDisplay:10.37,2013-01-31 22:10:00,
2013-01-31 15:15:00,45.5,17.3,30.02,NNW,331,6.5,11.5,32,0.00,SCT,SCT,0.01,97.0,WeatherDisplay:10.37,2013-01-31 22:15:00,
2013-01-31 15:20:00,45.1,17.0,30.02,North,5,10.4,11.5,32,0.00,SCT,SCT,0.01,98.0,WeatherDisplay:10.37,2013-01-31 22:20:00,
2013-01-31 15:25:00,44.7,17.3,30.02,NNW,348,6.5,13.8,33,0.00,SCT,SCT,0.01,104.0,WeatherDisplay:10.37,2013-01-31 22:25:00,
2013-01-31 15:30:00,44.5,17.1,30.02,NNE,15,4.3,6.9,33,0.00,SCT,SCT,0.01,104.0,WeatherDisplay:10.37,2013-01-31 22:30:00,
2013-01-31 15:35:00,44.3,17.0,30.03,NNW,338,9.3,11.5,33,0.00,SCT,SCT,0.01,142.0,WeatherDisplay:10.37,2013-01-31 22:35:00,
2013-01-31 15:40:00,44.2,17.6,30.03,NNW,333,3.6,9.2,34,0.00,SCT,SCT,0.01,153.0,WeatherDisplay:10.37,2013-01-31 22:40:00,
2013-01-31 15:45:00,44.2,17.6,30.03,NNW,329,3.7,4.6,34,0.00,SCT,SCT,0.01,135.0,WeatherDisplay:10.37,2013-01-31 22:45:00,
2013-01-31 15:50:00,44.3,17.7,30.03,North,349,4.4,10.3,34,0.00,SCT,SCT,0.01,169.0,WeatherDisplay:10.37,2013-01-31 22:50:00,
2013-01-31 15:55:00,44.5,17.8,30.02,NNW,340,3.5,5.8,34,0.00,SCT,SCT,0.01,241.0,WeatherDisplay:10.37,2013-01-31 22:55:00,
2013-01-31 16:00:00,44.7,18.7,30.02,North,355,2.9,6.9,35,0.00,SCT,SCT,0.01,265.0,WeatherDisplay:10.37,2013-01-31 23:00:00,
2013-01-31 16:05:00,44.9,19.5,30.00,NNE,15,3.2,4.6,36,0.00,SCT,SCT,0.01,223.0,WeatherDisplay:10.37,2013-01-31 23:05:00,
2013-01-31 16:10:00,44.8,19.4,30.00,North,355,3.0,9.2,36,0.00,SCT,SCT,0.01,193.0,WeatherDisplay:10.37,2013-01-31 23:10:00,
2013-01-31 16:15:00,44.6,20.5,30.00,North,355,1.4,4.0,38,0.00,SCT,SCT,0.01,193.0,WeatherDisplay:10.37,2013-01-31 23:15:00,
2013-01-31 16:20:00,44.5,19.2,30.00,NNW,333,5.3,10.3,36,0.00,SCT,SCT,0.01,204.0,WeatherDisplay:10.37,2013-01-31 23:20:00,
2013-01-31 16:25:00,44.5,19.8,30.00,North,9,5.2,6.9,37,0.00,SCT,SCT,0.01,178.0,WeatherDisplay:10.37,2013-01-31 23:25:00,
2013-01-31 16:30:00,44.4,20.3,30.01,NE,44,3.3,6.0,38,0.00,SCT,SCT,0.01,155.0,WeatherDisplay:10.37,2013-01-31 23:30:00,
2013-01-31 16:35:00,44.4,19.7,30.01,NNE,17,5.3,11.5,37,0.00,SCT,SCT,0.01,139.0,WeatherDisplay:10.37,2013-01-31 23:35:00,
2013-01-31 16:40:00,44.3,19.6,30.02,NNW,335,6.5,9.2,37,0.00,SCT,SCT,0.01,127.0,WeatherDisplay:10.37,2013-01-31 23:40:00,
2013-01-31 16:45:00,44.2,20.2,30.01,North,360,3.8,5.8,38,0.00,SCT,SCT,0.01,107.0,WeatherDisplay:10.37,2013-01-31 23:45:00,
2013-01-31 16:50:00,44.2,19.5,30.02,North,360,4.5,6.9,37,0.00,SCT,SCT,0.01,86.0,WeatherDisplay:10.37,2013-01-31 23:50:00,
2013-01-31 16:55:00,44.1,20.7,30.01,North,349,3.9,5.8,39,0.00,SCT,SCT,0.01,70.0,WeatherDisplay:10.37,2013-01-31 23:55:00,
2013-01-31 17:00:00,43.9,20.5,30.01,NE,34,3.8,7.0,39,0.00,SCT,SCT,0.01,30.0,WeatherDisplay:10.37,2013-02-01 00:00:00,
2013-01-31 17:05:00,43.7,20.9,30.03,NNE,17,2.1,4.0,40,0.00,BKN,BKN,0.01,21.0,WeatherDisplay:10.37,2013-02-01 00:05:00,
2013-01-31 17:10:00,43.5,20.7,30.03,NNE,12,2.2,3.4,40,0.00,BKN,BKN,0.01,14.0,WeatherDisplay:10.37,2013-02-01 00:10:00,
2013-01-31 17:15:00,43.1,19.2,30.03,NNW,341,1.9,3.4,38,0.00,BKN,BKN,0.01,7.0,WeatherDisplay:10.37,2013-02-01 00:15:00,
2013-01-31 17:20:00,42.9,19.0,30.03,NNW,344,3.6,6.0,38,0.00,BKN,BKN,0.01,0.0,WeatherDisplay:10.37,2013-02-01 00:20:00,
2013-01-31 17:25:00,42.8,18.9,30.03,North,10,3.6,4.6,38,0.00,BKN,BKN,0.01,0.0,WeatherDisplay:10.37,2013-02-01 00:25:00,
2013-01-31 17:30:00,42.6,19.3,30.03,North,360,0.6,5.8,39,0.00,BKN,BKN,0.01,0.0,WeatherDisplay:10.37,2013-02-01 00:30:00,
2013-01-31 17:35:00,42.4,20.9,30.05,NNE,26,2.8,3.4,42,0.00,BKN,BKN,0.01,0.0,WeatherDisplay:10.37,2013-02-01 00:35:00,
2013-01-31 17:40:00,41.9,21.0,30.05,NNE,30,2.4,4.6,43,0.00,BKN,BKN,0.01,0.0,WeatherDisplay:10.37,2013-02-01 00:40:00,
2013-01-31 17:45:00,41.5,21.7,30.05,NNE,29,2.0,3.4,45,0.00,BKN,BKN,0.01,0.0,WeatherDisplay:10.37,2013-02-01 00:45:00,
2013-01-31 17:50:00,41.0,21.3,30.05,NNE,33,2.1,3.4,45,0.00,BKN,BKN,0.01,0.0,WeatherDisplay:10.37,2013-02-01 00:50:00,
2013-01-31 17:55:00,40.5,21.3,30.05,NE,39,0.6,3.4,46,0.00,BKN,BKN,0.01,0.0,WeatherDisplay:10.37,2013-02-01 00:55:00,
2013-01-31 18:00:00,40.2,21.0,30.06,NE,39,0.9,3.4,46,0.00,BKN,BKN,0.01,0.0,WeatherDisplay:10.37,2013-02-01 01:00:00,
2013-01-31 18:05:00,40.0,20.9,30.09,NE,38,1.0,2.3,46,0.00,BKN,BKN,0.01,0.0,WeatherDisplay:10.37,2013-02-01 01:05:00,
2013-01-31 18:10:00,39.8,20.7,30.09,NE,39,0.0,0.0,46,0.00,BKN,BKN,0.01,0.0,WeatherDisplay:10.37,2013-02-01 01:10:00,
2013-01-31 18:15:00,39.7,21.1,30.09,NE,39,0.7,2.3,47,0.00,BKN,BKN,0.01,0.0,WeatherDisplay:10.37,2013-02-01 01:15:00,
2013-01-31 18:20:00,39.6,21.0,30.09,NE,39,0.1,0.0,47,0.00,BKN,BKN,0.01,0.0,WeatherDisplay:10.37,2013-02-01 01:20:00,
2013-01-31 18:25:00,39.4,20.8,30.09,NE,39,1.6,3.4,47,0.00,BKN,BKN,0.01,0.0,WeatherDisplay:10.37,2013-02-01 01:25:00,
2013-01-31 18:30:00,39.3,21.2,30.10,ESE,121,3.7,4.0,48,0.00,BKN,BKN,0.01,0.0,WeatherDisplay:10.37,2013-02-01 01:30:00,
2013-01-31 18:35:00,39.2,21.1,30.10,SE,130,1.0,2.3,48,0.00,BKN,BKN,0.01,0.0,WeatherDisplay:10.37,2013-02-01 01:35:00,
2013-01-31 18:40:00,39.1,21.0,30.10,SE,130,0.0,3.4,48,0.00,BKN,BKN,0.01,0.0,WeatherDisplay:10.37,2013-02-01 01:40:00,
2013-01-31 18:45:00,39.0,20.9,30.11,SE,132,2.9,4.0,48,0.00,BKN,BKN,0.01,0.0,WeatherDisplay:10.37,2013-02-01 01:45:00,
2013-01-31 18:50:00,38.9,20.9,30.11,SE,139,0.9,2.3,48,0.00,BKN,BKN,0.01,0.0,WeatherDisplay:10.37,2013-02-01 01:50:00,
2013-01-31 18:55:00,38.9,20.9,30.11,SE,138,0.8,2.0,48,0.00,BKN,BKN,0.01,0.0,WeatherDisplay:10.37,2013-02-01 01:55:00,
2013-01-31 19:00:00,38.8,20.8,30.11,SE,138,1.1,3.4,48,0.00,BKN,BKN,0.01,0.0,WeatherDisplay:10.37,2013-02-01 02:00:00,
2013-01-31 19:05:00,38.7,20.7,30.14,SE,139,0.8,2.3,48,0.00,SCT,SCT,0.01,0.0,WeatherDisplay:10.37,2013-02-01 02:05:00,
2013-01-31 19:10:00,38.7,20.7,30.15,SE,139,0.4,1.1,48,0.00,SCT,SCT,0.01,0.0,WeatherDisplay:10.37,2013-02-01 02:10:00,
2013-01-31 19:15:00,38.6,20.6,30.15,SE,139,0.1,3.4,48,0.00,SCT,SCT,0.01,0.0,WeatherDisplay:10.37,2013-02-01 02:15:00,
2013-01-31 19:20:00,38.6,20.6,30.15,SE,139,2.0,2.3,48,0.00,SCT,SCT,0.01,0.0,WeatherDisplay:10.37,2013-02-01 02:20:00,
2013-01-31 19:25:00,38.6,20.6,30.15,SE,139,0.9,2.3,48,0.00,SCT,SCT,0.01,0.0,WeatherDisplay:10.37,2013-02-01 02:25:00,
2013-01-31 19:30:00,38.5,20.5,30.16,SE,138,0.3,3.0,48,0.00,SCT,SCT,0.01,0.0,WeatherDisplay:10.37,2013-02-01 02:30:00,
2013-01-31 19:35:00,38.4,20.4,30.16,SE,139,0.8,2.3,48,0.00,SCT,SCT,0.01,0.0,WeatherDisplay:10.37,2013-02-01 02:35:00,
2013-01-31 19:40:00,38.3,20.3,30.15,SE,139,0.8,3.4,48,0.00,SCT,SCT,0.01,0.0,WeatherDisplay:10.37,2013-02-01 02:40:00,
2013-01-31 19:45:00,38.3,20.3,30.15,SE,139,0.6,1.1,48,0.00,SCT,SCT,0.01,0.0,WeatherDisplay:10.37,2013-02-01 02:45:00,
2013-01-31 19:50:00,38.2,20.7,30.15,SE,139,0.0,1.1,49,0.00,SCT,SCT,0.01,0.0,WeatherDisplay:10.37,2013-02-01 02:50:00,
2013-01-31 19:55:00,38.1,20.6,30.15,SE,139,1.1,1.1,49,0.00,SCT,SCT,0.01,0.0,WeatherDisplay:10.37,2013-02-01 02:55:00,
2013-01-31 20:00:00,38.0,20.0,30.15,SE,138,1.5,2.3,48,0.00,SCT,SCT,0.01,0.0,WeatherDisplay:10.37,2013-02-01 03:00:00,
2013-01-31 20:05:00,37.9,20.4,30.14,SE,139,0.0,1.1,49,0.00,SCT,SCT,0.01,0.0,WeatherDisplay:10.37,2013-02-01 03:05:00,
2013-01-31 20:10:00,37.9,19.9,30.15,SE,138,0.0,0.0,48,0.00,SCT,SCT,0.01,0.0,WeatherDisplay:10.37,2013-02-01 03:10:00,
2013-01-31 20:15:00,37.8,19.8,30.15,SE,139,0.0,0.0,48,0.00,SCT,SCT,0.01,0.0,WeatherDisplay:10.37,2013-02-01 03:15:00,
2013-01-31 20:20:00,37.7,19.8,30.15,SE,139,0.0,0.0,48,0.00,SCT,SCT,0.01,0.0,WeatherDisplay:10.37,2013-02-01 03:20:00,
2013-01-31 20:25:00,37.6,20.1,30.15,SE,139,2.6,4.0,49,0.00,SCT,SCT,0.01,0.0,WeatherDisplay:10.37,2013-02-01 03:25:00,
2013-01-31 20:30:00,37.6,20.1,30.15,SE,138,1.6,4.6,49,0.00,SCT,SCT,0.01,0.0,WeatherDisplay:10.37,2013-02-01 03:30:00,
2013-01-31 20:35:00,37.6,20.1,30.15,SE,144,1.8,3.4,49,0.00,SCT,SCT,0.01,0.0,WeatherDisplay:10.37,2013-02-01 03:35:00,
2013-01-31 20:40:00,37.6,20.1,30.15,SE,141,1.7,3.4,49,0.00,SCT,SCT,0.01,0.0,WeatherDisplay:10.37,2013-02-01 03:40:00,
2013-01-31 20:45:00,37.6,20.1,30.15,SE,138,2.5,5.8,49,0.00,SCT,SCT,0.01,0.0,WeatherDisplay:10.37,2013-02-01 03:45:00,
2013-01-31 20:50:00,37.6,20.1,30.15,SE,138,2.6,4.0,49,0.00,SCT,SCT,0.01,0.0,WeatherDisplay:10.37,2013-02-01 03:50:00,
2013-01-31 20:55:00,37.5,20.1,30.16,SE,138,0.6,3.4,49,0.00,SCT,SCT,0.01,0.0,WeatherDisplay:10.37,2013-02-01 03:55:00,
2013-01-31 21:00:00,37.3,19.9,30.16,SE,138,0.4,1.0,49,0.00,SCT,SCT,0.01,0.0,WeatherDisplay:10.37,2013-02-01 04:00:00,
2013-01-31 21:05:00,37.2,19.8,30.11,SE,138,2.1,3.4,49,0.00,SCT,SCT,0.01,0.0,WeatherDisplay:10.37,2013-02-01 04:05:00,
2013-01-31 21:10:00,37.0,20.1,30.11,SE,138,0.8,3.4,50,0.00,SCT,SCT,0.01,0.0,WeatherDisplay:10.37,2013-02-01 04:10:00,
2013-01-31 21:15:00,36.8,19.9,30.11,SE,138,0.8,3.4,50,0.00,SCT,SCT,0.01,0.0,WeatherDisplay:10.37,2013-02-01 04:15:00,
2013-01-31 21:20:00,36.6,19.7,30.11,SE,138,0.0,1.1,50,0.00,SCT,SCT,0.01,0.0,WeatherDisplay:10.37,2013-02-01 04:20:00,
2013-01-31 21:25:00,36.5,19.6,30.12,SE,138,0.1,2.3,50,0.00,SCT,SCT,0.01,0.0,WeatherDisplay:10.37,2013-02-01 04:25:00,
2013-01-31 21:30:00,36.3,19.9,30.13,SE,138,0.7,2.3,51,0.00,SCT,SCT,0.01,0.0,WeatherDisplay:10.37,2013-02-01 04:30:00,
2013-01-31 21:35:00,36.1,19.7,30.13,SE,138,0.0,0.0,51,0.00,SCT,SCT,0.01,0.0,WeatherDisplay:10.37,2013-02-01 04:35:00,
2013-01-31 21:40:00,35.9,19.5,30.13,SE,138,0.0,2.3,51,0.00,SCT,SCT,0.01,0.0,WeatherDisplay:10.37,2013-02-01 04:40:00,
2013-01-31 21:45:00,35.7,19.8,30.13,SE,138,1.1,2.0,52,0.00,SCT,SCT,0.01,0.0,WeatherDisplay:10.37,2013-02-01 04:45:00,
2013-01-31 21:50:00,35.4,19.5,30.13,SE,146,0.7,2.0,52,0.00,SCT,SCT,0.01,0.0,WeatherDisplay:10.37,2013-02-01 04:50:00,
2013-01-31 21:55:00,35.2,19.8,30.13,SE,145,1.0,3.4,53,0.00,SCT,SCT,0.01,0.0,WeatherDisplay:10.37,2013-02-01 04:55:00,
2013-01-31 22:00:00,35.1,19.7,30.14,SE,145,0.2,1.1,53,0.00,SCT,SCT,0.01,0.0,WeatherDisplay:10.37,2013-02-01 05:00:00,
2013-01-31 22:05:00,34.9,19.5,30.11,SE,145,0.7,3.4,53,0.00,SCT,SCT,0.01,0.0,WeatherDisplay:10.37,2013-02-01 05:05:00,
2013-01-31 22:10:00,34.8,19.8,30.11,SE,145,0.7,2.0,54,0.00,SCT,SCT,0.01,0.0,WeatherDisplay:10.37,2013-02-01 05:10:00,
2013-01-31 22:15:00,34.7,19.7,30.11,ESE,119,0.1,3.4,54,0.00,SCT,SCT,0.01,0.0,WeatherDisplay:10.37,2013-02-01 05:15:00,
2013-01-31 22:20:00,34.6,19.6,30.11,ESE,119,2.1,3.4,54,0.00,SCT,SCT,0.01,0.0,WeatherDisplay:10.37,2013-02-01 05:20:00,
2013-01-31 22:25:00,34.6,19.2,30.10,ESE,119,0.9,2.3,53,0.00,SCT,SCT,0.01,0.0,WeatherDisplay:10.37,2013-02-01 05:25:00,
2013-01-31 22:30:00,34.7,19.3,30.10,ESE,118,0.9,3.4,53,0.00,SCT,SCT,0.01,0.0,WeatherDisplay:10.37,2013-02-01 05:30:00,
2013-01-31 22:35:00,34.4,19.5,30.10,ESE,118,0.8,2.3,54,0.00,SCT,SCT,0.01,0.0,WeatherDisplay:10.37,2013-02-01 05:35:00,
2013-01-31 22:40:00,34.4,19.5,30.10,ESE,118,0.0,0.0,54,0.00,SCT,SCT,0.01,0.0,WeatherDisplay:10.37,2013-02-01 05:40:00,
2013-01-31 22:45:00,34.3,19.4,30.10,ESE,119,0.0,0.0,54,0.00,SCT,SCT,0.01,0.0,WeatherDisplay:10.37,2013-02-01 05:45:00,
2013-01-31 22:50:00,34.1,19.2,30.10,NNW,338,2.1,5.8,54,0.00,SCT,SCT,0.01,0.0,WeatherDisplay:10.37,2013-02-01 05:50:00,
2013-01-31 22:55:00,34.4,19.0,30.10,WNW,284,0.5,2.3,53,0.00,SCT,SCT,0.01,0.0,WeatherDisplay:10.37,2013-02-01 05:55:00,
2013-01-31 23:00:00,34.6,19.2,30.10,WNW,283,0.0,0.0,53,0.00,SCT,SCT,0.01,0.0,WeatherDisplay:10.37,2013-02-01 06:00:00,
2013-01-31 23:05:00,34.7,19.3,30.07,WNW,284,0.0,0.0,53,0.00,SCT,SCT,0.01,0.0,WeatherDisplay:10.37,2013-02-01 06:05:00,
2013-01-31 23:10:00,34.6,19.2,30.08,WNW,283,0.2,3.4,53,0.00,SCT,SCT,0.01,0.0,WeatherDisplay:10.37,2013-02-01 06:10:00,
2013-01-31 23:15:00,34.4,19.0,30.09,WNW,284,0.0,0.0,53,0.00,SCT,SCT,0.01,0.0,WeatherDisplay:10.37,2013-02-01 06:15:00,
2013-01-31 23:20:00,34.4,19.5,30.08,WNW,284,0.0,0.0,54,0.00,SCT,SCT,0.01,0.0,WeatherDisplay:10.37,2013-02-01 06:20:00,
2013-01-31 23:25:00,34.2,19.3,30.08,WNW,283,0.0,0.0,54,0.00,SCT,SCT,0.01,0.0,WeatherDisplay:10.37,2013-02-01 06:25:00,
2013-01-31 23:30:00,33.9,19.4,30.08,WNW,283,1.0,2.3,55,0.00,SCT,SCT,0.01,0.0,WeatherDisplay:10.37,2013-02-01 06:30:00,
2013-01-31 23:35:00,33.5,19.5,30.08,WNW,284,0.0,0.0,56,0.00,SCT,SCT,0.01,0.0,WeatherDisplay:10.37,2013-02-01 06:35:00,
2013-01-31 23:40:00,32.9,19.3,30.08,West,265,0.2,4.6,57,0.00,SCT,SCT,0.01,0.0,WeatherDisplay:10.37,2013-02-01 06:40:00,
2013-01-31 23:45:00,32.4,18.8,30.10,WSW,240,1.1,3.4,57,0.00,SCT,SCT,0.01,0.0,WeatherDisplay:10.37,2013-02-01 06:45:00,
2013-01-31 23:50:00,32.1,19.0,30.10,WSW,240,0.6,2.3,58,0.00,SCT,SCT,0.01,0.0,WeatherDisplay:10.37,2013-02-01 06:50:00,
2013-01-31 23:55:00,31.7,19.0,30.10,WSW,238,1.5,3.4,59,0.00,SCT,SCT,0.01,0.0,WeatherDisplay:10.37,2013-02-01 06:55:00,